Time;durP1;ratioP1;P1;durP2;ratioP2;P2;SDS_P1;SDS_P2;PMS_P1;PMS_P2;Temp;Humidity;BMP_temperature;BMP_pressure;BME280_temperature;BME280_humidity;BME280_pressure;Samples;Min_cycle;Max_cycle;Signal;HPM_P1;HPM_P2
2021/07/10 00:02:00;;;;;;;2.60;1.63;;;;;;;-148.56;100.00;61375.16;5022159;28;20576;-36
2021/07/10 00:05:23;;;;;;;2.97;1.80;;;;;;;-148.56;100.00;61375.16;5030506;28;20041;-36
2021/07/10 00:08:47;;;;;;;2.95;1.70;;;;;;;-148.56;100.00;61375.16;5021374;28;20603;-34
2021/07/10 00:12:11;;;;;;;2.95;1.40;;;;;;;-148.56;100.00;61375.16;5026482;28;20047;-36
2021/07/10 00:15:35;;;;;;;1.40;1.30;;;;;;;-148.56;100.00;61375.16;5033448;28;20139;-38
2021/07/10 00:18:59;;;;;;;1.45;1.27;;;;;;;-148.56;100.00;61375.16;5028217;28;20520;-35
2021/07/10 00:22:23;;;;;;;1.98;1.40;;;;;;;-148.56;100.00;61375.16;5028625;28;20098;-37
2021/07/10 00:25:47;;;;;;;1.80;1.45;;;;;;;-148.56;100.00;61375.16;5024837;28;20033;-37
2021/07/10 00:29:11;;;;;;;2.67;1.70;;;;;;;-148.56;100.00;61375.16;5027138;28;20040;-36
2021/07/10 00:32:35;;;;;;;3.60;1.60;;;;;;;-148.56;100.00;61375.16;5026445;28;20116;-35
2021/07/10 00:35:59;;;;;;;2.20;1.42;;;;;;;-148.56;100.00;61375.16;5024133;28;20029;-35
2021/07/10 00:39:23;;;;;;;2.60;1.50;;;;;;;-148.56;100.00;61375.16;5028010;28;20615;-36
2021/07/10 00:42:47;;;;;;;2.97;1.70;;;;;;;-148.56;100.00;61375.16;5023971;28;20100;-37
2021/07/10 00:46:15;;;;;;;2.05;1.70;;;;;;;-148.56;100.00;61375.16;5023272;28;20028;-36
2021/07/10 00:49:39;;;;;;;2.58;1.67;;;;;;;-148.56;100.00;61375.16;5029011;28;20029;-36
2021/07/10 00:52:26;;;;;;;1.75;1.48;;;;;;;-148.56;37.64;61375.16;5029113;28;20060;-35
2021/07/10 00:54:51;;;;;;;2.40;1.40;;;;;;;27.64;36.73;96987.78;5026405;28;20262;-36
2021/07/10 00:57:17;;;;;;;2.08;1.60;;;;;;;27.63;36.76;96980.81;5034757;28;20032;-36
2021/07/10 00:59:42;;;;;;;1.95;1.40;;;;;;;27.63;36.80;96970.28;5027015;28;20102;-37
2021/07/10 01:02:08;;;;;;;3.30;1.45;;;;;;;27.61;36.70;96978.25;5027009;28;20377;-36
2021/07/10 01:04:33;;;;;;;2.08;1.50;;;;;;;27.61;36.71;96980.91;5042475;28;20552;-35
2021/07/10 01:06:59;;;;;;;3.90;1.80;;;;;;;27.60;36.87;96984.44;5024697;28;20825;-36
2021/07/10 01:09:24;;;;;;;1.63;1.50;;;;;;;27.61;36.67;96983.53;5035740;28;20029;-35
2021/07/10 01:11:50;;;;;;;2.10;1.40;;;;;;;27.61;36.56;96983.53;5025738;28;20547;-34
2021/07/10 01:14:15;;;;;;;1.75;1.38;;;;;;;27.61;36.67;96988.78;5025703;28;20033;-37
2021/07/10 01:16:40;;;;;;;3.13;1.73;;;;;;;27.60;36.73;96987.06;5021562;28;20025;-35
2021/07/10 01:19:06;;;;;;;1.60;1.50;;;;;;;27.62;36.66;96989.66;5024624;28;20024;-32
2021/07/10 01:21:31;;;;;;;3.38;1.52;;;;;;;27.61;36.51;96983.53;5028263;28;20422;-33
2021/07/10 01:23:57;;;;;;;2.22;1.48;;;;;;;27.63;36.57;96983.44;5023001;28;20033;-38
2021/07/10 01:27:20;;;;;;;1.95;1.75;;;;;;;-148.56;100.00;61375.16;5029207;28;20107;-36
2021/07/10 01:30:45;;;;;;;2.17;1.45;;;;;;;-148.56;100.00;61375.16;5024492;28;20337;-36
2021/07/10 01:34:09;;;;;;;1.75;1.50;;;;;;;-148.56;100.00;61375.16;5027787;28;20076;-37
2021/07/10 01:37:34;;;;;;;2.95;1.60;;;;;;;-148.56;100.00;61375.16;5029678;28;20037;-34
2021/07/10 01:40:58;;;;;;;2.85;1.73;;;;;;;-148.56;100.00;61375.16;5022637;28;20026;-35
2021/07/10 01:44:22;;;;;;;1.63;1.40;;;;;;;-148.56;100.00;61375.16;5025006;28;20040;-34
2021/07/10 01:47:46;;;;;;;1.52;1.42;;;;;;;-148.56;100.00;61375.16;5021320;28;20033;-38
2021/07/10 01:50:12;;;;;;;1.90;1.50;;;;;;;27.61;36.44;96951.94;5022472;28;20602;-34
2021/07/10 01:52:38;;;;;;;1.63;1.52;;;;;;;27.60;36.35;96954.63;5027684;28;20123;-34
2021/07/10 01:55:05;;;;;;;5.57;1.65;;;;;;;27.57;36.44;96947.75;5019817;28;20032;-35
2021/07/10 01:57:30;;;;;;;1.45;1.30;;;;;;;27.58;36.35;96945.97;5026965;28;20121;-35
2021/07/10 01:59:56;;;;;;;2.83;1.70;;;;;;;27.56;36.37;96942.56;5025782;28;20038;-34
2021/07/10 02:02:21;;;;;;;2.88;1.55;;;;;;;27.55;36.50;96946.16;5026080;28;20033;-34
2021/07/10 02:04:49;;;;;;;3.33;1.55;;;;;;;27.54;36.43;96940.06;5025488;28;20048;-38
2021/07/10 02:07:14;;;;;;;1.67;1.38;;;;;;;27.54;36.28;96940.06;5025438;28;20032;-34
2021/07/10 02:09:40;;;;;;;2.25;1.60;;;;;;;27.53;36.25;96938.34;5023848;28;20029;-35
2021/07/10 02:12:06;;;;;;;1.92;1.38;;;;;;;27.53;36.23;96938.34;5022435;28;20037;-37
2021/07/10 02:14:31;;;;;;;2.63;1.48;;;;;;;27.52;36.31;96926.97;5022112;28;20140;-35
2021/07/10 02:16:56;;;;;;;3.30;1.70;;;;;;;27.52;36.36;96926.97;5022524;28;20708;-35
2021/07/10 02:19:22;;;;;;;1.50;1.40;;;;;;;27.53;36.28;96925.19;5020690;28;20128;-33
2021/07/10 02:21:47;;;;;;;2.17;1.42;;;;;;;27.54;36.18;96919.00;5039800;28;20257;-36
2021/07/10 02:24:13;;;;;;;1.70;1.30;;;;;;;27.54;36.27;96919.00;5024713;28;20512;-38
2021/07/10 02:26:38;;;;;;;3.28;1.60;;;;;;;27.55;36.14;96919.84;5026108;28;20030;-39
2021/07/10 02:29:05;;;;;;;1.58;1.48;;;;;;;27.53;36.27;96917.28;5024945;28;20029;-36
2021/07/10 02:31:30;;;;;;;1.58;1.30;;;;;;;27.54;36.11;96916.38;5025497;28;20107;-37
2021/07/10 02:33:55;;;;;;;1.77;1.30;;;;;;;27.53;36.18;96909.38;5024529;28;20021;-35
2021/07/10 02:36:21;;;;;;;2.20;1.40;;;;;;;27.53;36.15;96909.38;5023339;28;20052;-35
2021/07/10 02:38:46;;;;;;;4.10;1.25;;;;;;;27.52;36.28;96903.28;5030884;28;20124;-30
2021/07/10 02:41:12;;;;;;;4.65;1.45;;;;;;;27.53;36.04;96896.22;5032246;28;20122;-36
2021/07/10 02:43:38;;;;;;;2.50;1.50;;;;;;;27.52;36.16;96895.41;5025805;28;20925;-36
2021/07/10 02:46:04;;;;;;;1.67;1.45;;;;;;;27.53;36.19;96906.75;5026563;28;20055;-34
2021/07/10 02:48:29;;;;;;;2.55;1.45;;;;;;;27.51;36.17;96903.38;5029677;28;20029;-37
2021/07/10 02:51:38;;;;;;;2.25;1.60;;;;;;;21.68;100.00;70969.47;5030310;28;20126;-36
2021/07/10 02:54:03;;;;;;;2.20;1.35;;;;;;;27.52;36.04;96905.94;5027364;28;20027;-37
2021/07/10 02:56:29;;;;;;;1.83;1.35;;;;;;;27.53;36.14;96902.34;5028448;28;20028;-36
2021/07/10 02:58:54;;;;;;;1.55;1.30;;;;;;;27.54;35.95;96903.22;5026126;28;20033;-39
2021/07/10 03:01:20;;;;;;;1.25;1.17;;;;;;;27.52;36.04;96902.44;5029139;28;20412;-37
2021/07/10 03:03:46;;;;;;;2.88;1.20;;;;;;;27.52;36.04;96902.44;5030293;28;20649;-34
2021/07/10 03:07:10;;;;;;;1.20;1.05;;;;;;;-148.56;100.00;61375.16;5027500;28;20075;-34
2021/07/10 03:10:34;;;;;;;4.55;1.55;;;;;;;-148.56;100.00;61375.16;5027807;28;20041;-39
2021/07/10 03:13:57;;;;;;;2.38;1.60;;;;;;;-148.56;100.00;61375.16;5030597;28;20037;-36
2021/07/10 03:17:21;;;;;;;1.40;1.25;;;;;;;-148.56;100.00;61375.16;5027714;28;20029;-34
2021/07/10 03:20:45;;;;;;;2.75;1.42;;;;;;;-148.56;100.00;61375.16;5025713;28;20629;-37
2021/07/10 03:24:09;;;;;;;3.55;1.45;;;;;;;-148.56;100.00;61375.16;5029510;28;20062;-34
2021/07/10 03:27:33;;;;;;;2.05;1.50;;;;;;;-148.56;100.00;61375.16;5026879;28;20029;-34
2021/07/10 03:30:57;;;;;;;1.80;1.50;;;;;;;-148.56;100.00;61375.16;5031422;28;20040;-37
2021/07/10 03:34:21;;;;;;;11.13;1.67;;;;;;;-148.56;100.00;61375.16;5030371;28;20344;-33
2021/07/10 03:37:45;;;;;;;2.55;1.40;;;;;;;-148.56;100.00;61375.16;5029281;28;20040;-34
2021/07/10 03:41:11;;;;;;;3.83;1.50;;;;;;;-148.56;100.00;61375.16;5024538;28;20440;-37
2021/07/10 03:44:35;;;;;;;3.38;1.45;;;;;;;-148.56;100.00;61375.16;5028779;28;20034;-34
2021/07/10 03:47:59;;;;;;;2.40;1.45;;;;;;;-148.56;100.00;61375.16;5021575;28;20045;-35
2021/07/10 03:51:22;;;;;;;2.03;1.42;;;;;;;-148.56;100.00;61375.16;5027983;28;20029;-32
2021/07/10 03:53:48;;;;;;;2.60;1.35;;;;;;;27.52;36.04;96902.44;5030231;28;20040;-36
2021/07/10 03:57:12;;;;;;;1.27;1.13;;;;;;;-148.56;100.00;61375.16;5027611;28;20033;-35
2021/07/10 04:00:36;;;;;;;1.50;1.35;;;;;;;-148.56;100.00;61375.16;5024481;28;20083;-35
2021/07/10 04:04:00;;;;;;;3.08;1.45;;;;;;;-148.56;100.00;61375.16;5025842;28;20040;-37
2021/07/10 04:07:24;;;;;;;1.60;1.50;;;;;;;-148.56;100.00;61375.16;5027738;28;20048;-35
2021/07/10 04:10:48;;;;;;;5.40;1.42;;;;;;;-148.56;100.00;61375.16;5028547;28;20033;-36
2021/07/10 04:14:12;;;;;;;2.95;1.65;;;;;;;-148.56;100.00;61375.16;5029552;28;20056;-36
2021/07/10 04:17:35;;;;;;;2.50;1.65;;;;;;;-148.56;100.00;61375.16;5020915;28;20029;-31
2021/07/10 04:20:59;;;;;;;1.63;1.48;;;;;;;-148.56;100.00;61375.16;5022810;28;20056;-35
2021/07/10 04:24:23;;;;;;;2.13;1.30;;;;;;;-148.56;100.00;61375.16;5025317;28;20655;-34
2021/07/10 04:27:47;;;;;;;1.33;1.23;;;;;;;-148.56;100.00;61375.16;5027985;28;20384;-32
2021/07/10 04:31:12;;;;;;;2.78;1.48;;;;;;;-148.56;100.00;61375.16;5026804;28;20030;-36
2021/07/10 04:34:35;;;;;;;1.40;1.30;;;;;;;-148.56;100.00;61375.16;5025518;28;20044;-34
2021/07/10 04:37:59;;;;;;;1.60;1.50;;;;;;;-148.56;100.00;61375.16;5026347;28;20029;-36
2021/07/10 04:41:23;;;;;;;1.52;1.30;;;;;;;-148.56;100.00;61375.16;5027277;28;20120;-33
2021/07/10 04:44:47;;;;;;;2.10;1.30;;;;;;;-148.56;100.00;61375.16;5023918;28;20605;-32
2021/07/10 04:48:11;;;;;;;1.50;1.30;;;;;;;-148.56;100.00;61375.16;5026349;28;20040;-35
2021/07/10 04:51:35;;;;;;;3.28;1.40;;;;;;;-148.56;100.00;61375.16;5028152;28;20083;-35
2021/07/10 04:54:59;;;;;;;2.33;1.40;;;;;;;-148.56;100.00;61375.16;5025024;28;20512;-35
2021/07/10 04:58:22;;;;;;;3.65;1.70;;;;;;;-148.56;100.00;61375.16;5027302;28;20460;-36
2021/07/10 05:01:46;;;;;;;4.70;1.60;;;;;;;-148.56;100.00;61375.16;5022571;28;20036;-36
2021/07/10 05:05:10;;;;;;;2.67;1.90;;;;;;;-148.56;100.00;61375.16;5026757;28;20032;-36
2021/07/10 05:08:34;;;;;;;2.85;1.70;;;;;;;-148.56;100.00;61375.16;5027306;28;20029;-35
2021/07/10 05:11:58;;;;;;;2.08;1.58;;;;;;;-148.56;100.00;61375.16;5024903;28;20021;-37
2021/07/10 05:14:52;;;;;;;2.58;1.48;;;;;;;27.52;36.04;96902.44;5027279;28;20041;-32
2021/07/10 05:18:17;;;;;;;1.60;1.50;;;;;;;-148.56;100.00;61375.16;5024721;28;20555;-34
2021/07/10 05:20:44;;;;;;;3.92;1.70;;;;;;;27.49;35.81;96889.44;5033270;28;20037;-38
2021/07/10 05:24:10;;;;;;;5.00;1.65;;;;;;;-148.56;100.00;61375.16;5024390;28;20390;-35
2021/07/10 05:27:32;;;;;;;2.83;1.42;;;;;;;-148.56;100.00;61375.16;5026869;28;20037;-34
2021/07/10 05:30:56;;;;;;;2.17;1.33;;;;;;;-148.56;100.00;61375.16;5024265;28;20508;-33
2021/07/10 05:34:20;;;;;;;3.22;1.38;;;;;;;-148.56;100.00;61375.16;5024768;28;20037;-36
2021/07/10 05:37:45;;;;;;;2.28;1.48;;;;;;;-148.56;100.00;61375.16;5018079;28;21567;-37
2021/07/10 05:41:03;;;;;;;3.15;1.40;;;;;;;-148.56;31.04;61375.16;5023853;28;20017;-34
2021/07/10 05:44:26;;;;;;;2.60;1.42;;;;;;;-148.56;100.00;61375.16;5020653;28;20030;-37
2021/07/10 05:47:50;;;;;;;3.70;1.58;;;;;;;-148.56;100.00;61375.16;5023659;28;20064;-34
2021/07/10 05:51:13;;;;;;;1.50;1.30;;;;;;;-148.56;100.00;61375.16;5026175;28;20026;-36
2021/07/10 05:53:38;;;;;;;1.55;1.45;;;;;;;27.54;36.23;96884.78;5028155;28;20064;-38
2021/07/10 05:56:04;;;;;;;2.50;1.50;;;;;;;27.52;36.35;96879.59;5020797;28;20045;-31
2021/07/10 05:58:29;;;;;;;1.52;1.40;;;;;;;27.53;36.25;96875.16;5027958;28;21007;-32
2021/07/10 06:01:03;;;;;;;1.77;1.25;;;;;;;192.21;36.25;96875.16;5024759;28;20026;-36
2021/07/10 06:04:26;;;;;;;1.95;1.50;;;;;;;-148.56;100.00;61375.16;5023318;28;20025;-36
2021/07/10 06:06:52;;;;;;;2.35;1.30;;;;;;;27.58;36.43;96882.81;5023597;28;20060;-34
2021/07/10 06:09:17;;;;;;;1.80;1.30;;;;;;;27.57;36.35;96876.69;5028037;28;20025;-40
2021/07/10 06:11:42;;;;;;;1.17;1.08;;;;;;;27.56;36.50;96877.63;5028642;28;20509;-36
2021/07/10 06:14:08;;;;;;;2.03;1.20;;;;;;;27.56;36.53;96875.00;5029531;28;20031;-36
2021/07/10 06:16:35;;;;;;;1.52;1.10;;;;;;;27.57;36.62;96876.69;5028717;28;20121;-34
2021/07/10 06:19:00;;;;;;;1.15;1.08;;;;;;;27.58;36.63;96873.09;5028167;28;20044;-35
2021/07/10 06:21:26;;;;;;;0.93;0.90;;;;;;;27.58;36.52;96873.09;5026255;28;20037;-36
2021/07/10 06:23:53;;;;;;;1.77;1.00;;;;;;;27.58;36.61;96875.75;5028363;28;20112;-34
2021/07/10 06:26:21;;;;;;;4.65;1.13;;;;;;;27.60;36.60;96871.25;5026445;28;21001;-32
2021/07/10 06:28:49;;;;;;;1.88;1.30;;;;;;;27.60;36.63;96871.25;5023903;28;20043;-38
2021/07/10 06:31:15;;;;;;;1.75;1.20;;;;;;;27.61;36.76;96872.97;5025671;28;20043;-37
2021/07/10 06:33:41;;;;;;;3.15;1.45;;;;;;;27.62;36.68;96873.81;5032058;28;20029;-39
2021/07/10 06:36:06;;;;;;;1.20;1.10;;;;;;;27.62;36.70;96869.38;5029423;28;20036;-30
2021/07/10 06:38:32;;;;;;;1.65;1.30;;;;;;;27.63;36.75;96864.97;5023173;28;20192;-37
2021/07/10 06:40:57;;;;;;;1.17;1.05;;;;;;;27.63;36.75;96865.84;5027937;28;20041;-34
2021/07/10 06:43:22;;;;;;;1.42;1.13;;;;;;;27.64;36.62;96864.03;5029278;28;20052;-37
2021/07/10 06:45:48;;;;;;;1.17;1.08;;;;;;;27.65;36.73;96871.03;5023411;28;20374;-36
2021/07/10 06:48:13;;;;;;;2.65;1.40;;;;;;;27.65;36.81;96869.22;5025217;28;20503;-37
2021/07/10 06:50:38;;;;;;;1.58;1.10;;;;;;;27.68;36.83;96872.63;5031337;28;20034;-37
2021/07/10 06:53:04;;;;;;;3.97;1.30;;;;;;;27.67;36.77;96863.00;5027066;28;20021;-38
2021/07/10 06:55:29;;;;;;;1.75;1.20;;;;;;;27.67;36.66;96866.50;5027039;28;20102;-35
2021/07/10 06:57:55;;;;;;;1.40;1.30;;;;;;;27.67;36.77;96868.28;5028526;28;20905;-35
2021/07/10 07:00:20;;;;;;;2.95;1.20;;;;;;;27.69;36.87;96863.78;5023771;28;20127;-37
2021/07/10 07:02:46;;;;;;;2.67;1.30;;;;;;;27.68;36.76;96862.09;5044883;28;20025;-35
2021/07/10 07:05:11;;;;;;;1.52;1.15;;;;;;;27.69;36.91;96861.13;5028639;28;20021;-33
2021/07/10 07:07:37;;;;;;;1.27;1.00;;;;;;;27.69;36.88;96863.78;5024741;28;20024;-34
2021/07/10 07:10:04;;;;;;;1.88;1.15;;;;;;;27.68;36.92;96851.56;5028116;28;20404;-35
2021/07/10 07:12:29;;;;;;;1.67;1.02;;;;;;;27.69;36.92;96854.06;5030526;28;20028;-36
2021/07/10 07:14:54;;;;;;;1.20;1.10;;;;;;;27.70;36.98;96847.88;5029061;28;20025;-36
2021/07/10 07:17:20;;;;;;;1.25;1.08;;;;;;;27.70;36.80;96847.03;5024387;28;20037;-35
2021/07/10 07:19:45;;;;;;;1.90;1.20;;;;;;;27.70;37.00;96839.13;5027554;28;20033;-37
2021/07/10 07:22:11;;;;;;;1.35;1.20;;;;;;;27.71;37.00;96840.81;5025740;28;20150;-37
2021/07/10 07:24:36;;;;;;;1.10;1.00;;;;;;;27.71;37.05;96840.81;5030824;28;20554;-34
2021/07/10 07:27:02;;;;;;;1.30;1.17;;;;;;;27.71;37.11;96840.81;5026819;28;20044;-36
2021/07/10 07:29:27;;;;;;;1.40;1.30;;;;;;;27.71;36.92;96836.41;5031179;28;20456;-33
2021/07/10 07:31:53;;;;;;;1.20;1.08;;;;;;;27.71;37.03;96839.03;5029238;28;20033;-41
2021/07/10 07:34:18;;;;;;;1.40;1.27;;;;;;;27.72;37.11;96837.28;5028787;28;20780;-36
2021/07/10 07:36:43;;;;;;;2.55;1.23;;;;;;;27.72;37.11;96827.56;5026191;28;20585;-30
2021/07/10 07:39:09;;;;;;;1.10;1.00;;;;;;;27.73;37.10;96825.78;5022024;28;20033;-35
2021/07/10 07:41:35;;;;;;;1.40;1.00;;;;;;;27.72;37.16;96814.41;5027010;28;20470;-35
2021/07/10 07:44:01;;;;;;;1.40;1.13;;;;;;;27.73;37.05;96821.34;5028408;28;20017;-37
2021/07/10 07:46:26;;;;;;;1.02;0.93;;;;;;;27.73;37.21;96816.09;5020276;28;20493;-34
2021/07/10 07:48:51;;;;;;;1.15;1.08;;;;;;;27.74;37.11;96824.84;5026733;28;20044;-36
2021/07/10 07:51:18;;;;;;;0.88;0.88;;;;;;;27.75;37.28;96821.25;5026003;28;20039;-42
2021/07/10 07:53:43;;;;;;;0.75;0.75;;;;;;;27.74;37.26;96820.44;5027980;28;20155;-37
2021/07/10 07:56:09;;;;;;;2.10;1.23;;;;;;;27.75;37.29;96821.25;5031066;28;20022;-33
2021/07/10 07:58:34;;;;;;;1.40;0.90;;;;;;;27.76;37.29;96817.69;5033497;28;20032;-36
2021/07/10 08:01:00;;;;;;;1.30;1.20;;;;;;;27.76;37.13;96818.53;5026036;28;20036;-34
2021/07/10 08:03:25;;;;;;;3.75;1.30;;;;;;;27.77;37.20;96814.97;5028675;28;20547;-34
2021/07/10 08:05:50;;;;;;;1.02;0.88;;;;;;;27.77;37.24;96806.25;5027926;28;20040;-36
2021/07/10 08:08:16;;;;;;;1.63;1.20;;;;;;;27.78;37.14;96807.94;5028288;28;20509;-35
2021/07/10 08:10:41;;;;;;;1.30;1.20;;;;;;;27.78;37.23;96806.16;5030151;28;20032;-38
2021/07/10 08:13:06;;;;;;;1.58;1.02;;;;;;;27.80;37.30;96807.84;5028838;28;20020;-34
2021/07/10 08:15:32;;;;;;;1.92;1.00;;;;;;;27.76;37.28;96804.53;5022650;28;20060;-35
2021/07/10 08:17:57;;;;;;;1.08;1.00;;;;;;;27.80;37.38;96807.84;5023617;28;20041;-32
2021/07/10 08:20:23;;;;;;;1.05;1.02;;;;;;;27.82;37.22;96808.56;5020787;28;20317;-33
2021/07/10 08:22:49;;;;;;;3.65;1.15;;;;;;;27.80;37.39;96807.84;5012705;28;20029;-35
2021/07/10 08:25:15;;;;;;;3.65;1.52;;;;;;;27.82;37.20;96801.53;5019985;28;20052;-36
2021/07/10 08:27:41;;;;;;;5.43;2.45;;;;;;;27.82;36.68;96801.53;5016561;28;20024;-34
2021/07/10 08:30:06;;;;;;;4.30;2.17;;;;;;;27.76;36.42;96791.34;5015262;28;20271;-34
2021/07/10 08:32:32;;;;;;;4.45;2.17;;;;;;;27.77;36.52;96795.72;5016096;28;20060;-37
2021/07/10 08:34:57;;;;;;;4.80;2.65;;;;;;;27.75;36.39;96795.78;5014779;28;20040;-34
2021/07/10 08:37:23;;;;;;;4.78;2.92;;;;;;;27.73;36.30;96791.56;5017748;28;20382;-31
2021/07/10 08:39:48;;;;;;;4.68;2.60;;;;;;;27.69;35.77;96780.34;5019191;28;20036;-34
2021/07/10 08:42:14;;;;;;;7.05;2.67;;;;;;;27.69;35.54;96779.53;5018304;28;20124;-34
2021/07/10 08:44:40;;;;;;;3.22;2.55;;;;;;;27.65;35.59;96784.97;5018436;28;20033;-33
2021/07/10 08:47:11;;;;;;;4.45;2.75;;;;;;;27.63;35.54;96781.59;4998317;28;20120;-38
2021/07/10 08:49:37;;;;;;;6.28;2.60;;;;;;;27.63;35.55;96788.63;5027238;28;20051;-35
2021/07/10 08:52:03;;;;;;;4.93;2.35;;;;;;;27.62;35.51;96779.06;5018664;28;20643;-35
2021/07/10 08:54:28;;;;;;;5.55;2.50;;;;;;;27.61;35.45;96780.84;5019867;28;20125;-34
2021/07/10 08:56:54;;;;;;;3.78;2.60;;;;;;;27.61;35.21;96777.38;5016864;28;20033;-32
2021/07/10 08:59:19;;;;;;;7.70;2.83;;;;;;;27.60;35.17;96776.47;5024949;28;20028;-34
2021/07/10 09:01:45;;;;;;;5.38;2.60;;;;;;;27.59;35.05;96782.69;5015916;28;20052;-36
2021/07/10 09:04:10;;;;;;;4.32;2.95;;;;;;;27.58;35.01;96775.72;5015616;28;20594;-36
2021/07/10 09:06:35;;;;;;;4.22;2.30;;;;;;;27.57;34.75;96768.75;5014350;28;20950;-36
2021/07/10 09:09:03;;;;;;;3.00;2.20;;;;;;;27.55;34.61;96768.03;5018275;28;20511;-32
2021/07/10 09:11:29;;;;;;;5.05;2.40;;;;;;;27.55;34.51;96773.28;5018707;28;20076;-32
2021/07/10 09:13:55;;;;;;;3.90;2.60;;;;;;;27.55;34.68;96773.28;5016113;28;20017;-36
2021/07/10 09:16:30;;;;;;;4.40;2.30;;;;;;;27.54;34.66;96771.59;5018007;28;20068;-39
2021/07/10 09:21:51;;;;;;;4.00;2.45;;;;;;;27.55;34.91;96775.91;2083380;23;20200;-78
2021/07/10 09:24:28;;;;;;;6.75;2.30;;;;;;;27.52;34.93;96768.19;4970534;23;20045;-73
2021/07/10 09:26:54;;;;;;;7.40;2.60;;;;;;;27.50;34.79;96754.31;4955068;28;20053;-73
2021/07/10 09:29:24;;;;;;;3.22;2.30;;;;;;;27.57;35.17;96771.41;4963145;28;20367;-71
2021/07/10 09:31:54;;;;;;;5.95;2.72;;;;;;;27.58;35.04;96767.81;4979489;28;20040;-74
2021/07/10 09:34:21;;;;;;;4.43;2.25;;;;;;;27.59;34.82;96759.00;4983531;28;20065;-73
2021/07/10 09:36:57;;;;;;;4.90;2.60;;;;;;;27.61;34.95;96767.66;4980937;28;20255;-69
2021/07/10 09:39:23;;;;;;;5.05;2.30;;;;;;;27.61;35.14;96756.31;4984359;28;20033;-70
2021/07/10 09:41:48;;;;;;;4.82;2.38;;;;;;;27.63;35.10;96765.81;4960473;28;20248;-72
2021/07/10 09:44:15;;;;;;;5.00;2.17;;;;;;;27.63;35.13;96765.81;4967583;28;20092;-70
2021/07/10 09:46:40;;;;;;;2.88;2.13;;;;;;;27.67;35.10;96762.97;4964005;28;20046;-70
2021/07/10 09:49:22;;;;;;;5.57;2.17;;;;;;;27.67;35.25;96750.66;4965818;28;20613;-71
2021/07/10 09:51:47;;;;;;;;;;;;;;;27.70;35.04;96753.13;4960834;28;20364;-71
2021/07/10 09:54:13;;;;;;;4.13;2.40;;;;;;;27.67;35.16;96740.13;4967902;28;20004;-71
2021/07/10 09:57:02;;;;;;;3.35;1.95;;;;;;;27.71;34.91;96744.25;4948864;28;20034;-71
2021/07/10 09:59:28;;;;;;;2.22;2.03;;;;;;;27.73;34.72;96749.44;4963724;28;21347;-70
2021/07/10 10:02:54;;;;;;;4.13;2.40;;;;;;;-148.56;100.00;61375.16;4981497;28;20032;-69
2021/07/10 10:06:32;;;;;;;2.28;2.00;;;;;;;-148.56;100.00;61375.16;4947950;28;20049;-71
2021/07/10 10:09:57;;;;;;;3.35;1.90;;;;;;;-148.56;100.00;61375.16;4982965;28;20025;-65
2021/07/10 10:13:21;;;;;;;3.10;1.95;;;;;;;-148.56;100.00;61375.16;4957309;28;20026;-65
2021/07/10 10:16:46;;;;;;;5.82;2.00;;;;;;;-148.56;100.00;61375.16;4978936;28;20038;-65
2021/07/10 10:20:17;;;;;;;3.10;2.10;;;;;;;-148.56;100.00;61375.16;4980750;28;21206;-67
2021/07/10 10:23:41;;;;;;;3.25;1.98;;;;;;;-148.56;100.00;61375.16;4978696;28;20035;-68
2021/07/10 10:27:05;;;;;;;4.32;1.85;;;;;;;-148.56;100.00;61375.16;4977689;28;20639;-66
2021/07/10 10:30:29;;;;;;;5.05;1.80;;;;;;;-148.56;100.00;61375.16;4976944;28;20065;-67
2021/07/10 10:33:53;;;;;;;4.43;2.25;;;;;;;-148.56;100.00;61375.16;4964046;28;20026;-66
2021/07/10 10:37:20;;;;;;;4.00;2.20;;;;;;;-148.56;100.00;61375.16;4970333;28;20030;-65
2021/07/10 10:40:44;;;;;;;3.35;2.22;;;;;;;-148.56;100.00;61375.16;4963161;28;20033;-67
2021/07/10 10:44:10;;;;;;;5.60;2.28;;;;;;;-148.56;100.00;61375.16;4983291;28;20065;-71
2021/07/10 10:47:45;;;;;;;2.20;1.95;;;;;;;-148.56;100.00;61375.16;4950519;28;20034;-71
2021/07/10 10:51:25;;;;;;;2.28;1.90;;;;;;;-148.56;100.00;61375.16;4980749;28;20026;-72
2021/07/10 10:54:53;;;;;;;3.42;2.00;;;;;;;-148.56;100.00;61375.16;4983473;28;20033;-69
2021/07/10 10:57:37;;;;;;;2.90;1.90;;;;;;;27.73;34.72;96749.44;4983466;28;20061;-71
2021/07/10 11:00:08;;;;;;;2.83;2.05;;;;;;;27.89;34.68;96692.22;4985248;28;20553;-71
2021/07/10 11:02:33;;;;;;;;;;;;;;;27.88;34.50;96693.16;4980855;28;20270;-69
2021/07/10 11:04:59;;;;;;;3.95;2.35;;;;;;;27.88;34.60;96684.44;4965031;28;19922;-71
2021/07/10 11:07:26;;;;;;;5.28;2.20;;;;;;;27.89;34.68;96675.59;4986606;28;20022;-70
2021/07/10 11:10:16;;;;;;;3.83;2.22;;;;;;;27.88;34.66;96674.72;4949967;28;20033;-72
2021/07/10 11:12:59;;;;;;;2.92;2.28;;;;;;;27.89;34.18;96671.16;4985565;28;20018;-73
2021/07/10 11:15:25;;;;;;;3.85;1.75;;;;;;;27.89;34.69;96668.53;4983585;28;20559;-72
2021/07/10 11:17:51;;;;;;;2.85;2.00;;;;;;;27.87;34.38;96659.88;4984316;28;20030;-72
2021/07/10 11:20:41;;;;;;;2.55;1.80;;;;;;;27.90;34.28;96662.31;4981414;28;20473;-72
2021/07/10 11:23:28;;;;;;;3.38;2.08;;;;;;;27.91;34.26;96658.75;4983701;28;20038;-72
2021/07/10 11:25:57;;;;;;;2.70;1.70;;;;;;;27.91;33.99;96656.13;4969772;28;20036;-72
2021/07/10 11:28:25;;;;;;;2.70;1.90;;;;;;;27.90;34.00;96643.91;4988763;28;20041;-69
2021/07/10 11:30:53;;;;;;;9.38;1.98;;;;;;;27.90;34.00;96643.91;4986532;28;20022;-71
2021/07/10 11:33:57;;;;;;;3.45;2.20;;;;;;;27.92;34.00;96647.25;4984125;28;20026;-72
2021/07/10 11:36:47;;;;;;;2.88;1.90;;;;;;;27.94;33.92;96641.91;4982633;28;20129;-72
2021/07/10 11:39:26;;;;;;;2.67;1.80;;;;;;;27.95;33.84;96632.22;4969215;28;20038;-72
2021/07/10 11:41:53;;;;;;;2.28;1.63;;;;;;;27.95;33.86;96633.03;4985941;28;20405;-73
2021/07/10 11:44:20;;;;;;;3.50;2.40;;;;;;;27.95;33.43;96630.41;4970851;28;20406;-72
2021/07/10 11:46:55;;;;;;;2.42;2.10;;;;;;;27.92;33.33;96618.28;4962752;28;20034;-70
2021/07/10 11:49:35;;;;;;;2.22;1.90;;;;;;;27.96;33.47;96628.63;4968875;28;20442;-72
2021/07/10 11:52:16;;;;;;;2.97;1.85;;;;;;;27.97;33.30;96622.41;4980742;28;20041;-71
2021/07/10 11:54:55;;;;;;;2.85;1.65;;;;;;;27.97;33.30;96612.75;4984294;28;20030;-69
2021/07/10 11:57:22;;;;;;;2.83;1.90;;;;;;;27.97;33.22;96609.25;4966965;28;20037;-72
2021/07/10 11:59:47;;;;;;;2.95;1.60;;;;;;;27.97;33.52;96604.84;4983055;28;20080;-69
2021/07/10 12:02:20;;;;;;;2.63;1.75;;;;;;;27.97;33.75;96609.25;4983316;28;20065;-72
2021/07/10 12:05:07;;;;;;;2.95;1.88;;;;;;;27.98;33.84;96595.13;4984137;28;20260;-70
2021/07/10 12:07:34;;;;;;;3.08;1.77;;;;;;;27.98;33.67;96592.50;4965081;28;20045;-71
2021/07/10 12:10:00;;;;;;;2.35;1.88;;;;;;;27.98;33.80;96595.13;4968389;28;20025;-73
2021/07/10 12:12:25;;;;;;;4.85;2.40;;;;;;;28.00;34.25;96598.53;4984647;28;22934;-70
2021/07/10 12:14:55;;;;;;;7.88;2.03;;;;;;;27.99;34.69;96592.41;4985031;28;20773;-73
2021/07/10 12:17:21;;;;;;;12.93;2.17;;;;;;;28.00;34.36;96593.25;4986670;28;20026;-72
2021/07/10 12:19:50;;;;;;;2.78;1.90;;;;;;;28.02;34.76;96597.47;4988098;28;20022;-73
2021/07/10 12:22:15;;;;;;;8.02;1.98;;;;;;;28.01;34.77;96600.22;4986825;28;20567;-67
2021/07/10 12:24:41;;;;;;;5.00;2.00;;;;;;;28.02;34.80;96591.34;4968592;28;20045;-66
2021/07/10 12:27:14;;;;;;;5.32;2.20;;;;;;;28.03;34.64;96582.50;4985189;28;20026;-68
2021/07/10 12:29:55;;;;;;;4.97;1.98;;;;;;;28.04;34.63;96579.75;4986722;28;20022;-68
2021/07/10 12:32:21;;;;;;;9.02;2.17;;;;;;;28.05;35.08;96583.25;4982646;28;20029;-66
2021/07/10 12:34:50;;;;;;;5.25;1.95;;;;;;;28.04;35.16;96579.75;4967037;28;20179;-68
2021/07/10 12:37:28;;;;;;;5.10;2.03;;;;;;;28.05;35.12;96588.53;4954992;28;20093;-67
2021/07/10 12:40:23;;;;;;;3.20;2.08;;;;;;;28.05;35.30;96580.63;4966971;28;20650;-69
2021/07/10 12:42:54;;;;;;;6.85;2.50;;;;;;;28.06;34.97;96570.94;4946523;28;20034;-66
2021/07/10 12:45:20;;;;;;;5.68;2.20;;;;;;;28.06;35.03;96571.78;4955096;28;20026;-68
2021/07/10 12:47:45;;;;;;;4.03;2.10;;;;;;;28.06;34.88;96569.13;4984187;28;20045;-68
2021/07/10 12:50:11;;;;;;;2.75;2.08;;;;;;;28.06;34.87;96571.78;4982315;28;20030;-67
2021/07/10 12:52:45;;;;;;;4.38;2.20;;;;;;;28.05;34.98;96567.44;4987123;28;20410;-69
2021/07/10 12:55:12;;;;;;;3.63;2.17;;;;;;;28.05;34.88;96564.81;4970067;28;20500;-67